Odem, TX (78370)

12:44 AM CST on December 20, 2014 (GMT -0600)
MesoWest EDROY TX US UPR | Change Station
CLOSE
Current Station
Personal Weather Station
Location: Odem, TX
Elevation: 99 ft
Nearby Weather Stations

Elev 99 ft 27.97 °N, 97.68 °W | Updated 2 hours ago

Overcast
Overcast
62.0 °F
Feels Like 62.0 °F
N
-
Wind Variable Wind from North

Today
High -- | Low -- °F
--% Chance of Precip.
Yesterday
High -- | Low -- °F
Precip. -- in
7:16 AM 5:39 PM
Waning Crescent, 4% visible
Pressure 30.13 in
Visibility 10.0 miles
Clouds Mostly Cloudy 1500 ft
Overcast 2000 ft
Dew Point Not available.
Humidity Not available.
Rainfall -999.00 in
Snow Depth Not available.
UV 0 out of 12
Pollen 4.40 out of 12
Air Quality Not available.
Flu Activity Not available.
METAR KCRP 200551Z 01013KT 10SM BKN015 OVC020 14/11 A3013 RMK AO2 SLP201 T01390111 10161 20139 402060133 51011 $

More Conditions Fewer Conditions

Pressure 30.13 in
Visibility 10.0 miles
Clouds Mostly Cloudy 1500 ft
Overcast 2000 ft
Dew Point Not available.
Humidity Not available.
Rainfall -999.00 in
Snow Depth Not available.
UV 0 out of 12
Pollen 4.40 out of 12
Air Quality Not available.
Flu Activity Not available.
METAR KCRP 200551Z 01013KT 10SM BKN015 OVC020 14/11 A3013 RMK AO2 SLP201 T01390111 10161 20139 402060133 51011 $

More Conditions Fewer Conditions

10-Day Weather Forecast

Almanac

Astronomy

Dec. 20, 2014 Rise Set
Actual Time
Civil Twilight
Nautical Twilight
Astronomical Twilight
Moon
Length of Visible Light
Length of Day
Tomorrow will be .
, % of the Moon is Illuminated

Today's Extremes

State Highs State Lows

Community

WunderPhotos

Upload Photos

1,779,144 photos uploaded!

WunderBlogs® & News

Nearby

Air Quality

  Air Quality AQ Index Pollutant
Not available.

Snow Depth

Station Depth Elevation

Earthquake Activity

City Distance Mag. Time & Date
Minimum magnitude displayed is 2.5.

Coastal Water Temperatures

Place Temperature

Nearby Weather Stations